Hovedside
METAR-TAF:

METAR-TAF

Lufthavner :

Kuusamo lufthavn

Kuusamo, Finland

breddegrad: 65-58N, lengdegrad: 029-11E, høyde over havet: 262 m

Gjeldene værobservasjon

Denne rapporten ble laget for 25 minutter siden, klokken 18:20 UTC
Vind 9 kt fra Vest
Temperatur -3°C
Luftfuktighet 100%
Trykk 1027 hPa
Sikt 10 km eller mer
Overskyet i en høyde av 600 ft

METAR: EFKS 191820Z AUTO 27009KT 9999 OVC006 M03/M03 Q1027

Tid: 20:45 (18:45 UTC)

Varsel

Denne rapporten ble laget for 10 timer og 11 minutter siden, klokken 08:34 UTC
Varsel gyldig fra 19. klokken 09 UTC til 19. klokken 13 UTC
Vind 7 kt fra Vest
Sikt 10 km eller mer
Brutte skyer i en høyde av 500 ft
Midlertidig
fra 19. klokken 09 UTC til 19. klokken 13 UTC
Sikt: 2500 m
Brutte skyer i en høyde av 200 ft
dis

TAF: EFKS 190834Z 1909/1913 26007KT 9999 BKN005 TEMPO 1909/1913 2500 BR BKN002

Værobservasjoner og værvarsel for over 4000 flyplasser (METAR- og TAF-rapporter).

Tilgjengelige stasjoner er representert av de røde og gule prikkene på kartet.

Hold musepekeren over prikken for å se navnet på stasjonen.

Klikk så for å se værobservasjoner og -varsler.

For å forandre kartet kan du klikke på den grønne knappen med svart kryss for å zoome inn, på den grønne knappen med strek for å zoome ut, eller på de grønne pilene for å se tilstøtende kart.


METAR-TAF: